Time;durP1;ratioP1;P1;durP2;ratioP2;P2;SDS_P1;SDS_P2;PMS_P1;PMS_P2;Temp;Humidity;BMP_temperature;BMP_pressure;BME280_temperature;BME280_humidity;BME280_pressure;Samples;Min_cycle;Max_cycle;Signal;HPM_P1;HPM_P2
2023/10/12 00:04:18;;;;;;;;;;;20.10;58.20;;;;;;217370;1286;24283;-63
2023/10/12 00:09:25;;;;;;;;;;;20.10;58.30;;;;;;217221;1290;22573;-65
2023/10/12 00:14:29;;;;;;;;;;;20.10;58.30;;;;;;217429;1298;22545;-64
2023/10/12 00:19:32;;;;;;;;;;;20.10;58.30;;;;;;217400;1288;22552;-65
2023/10/12 00:24:35;;;;;;;;;;;20.10;58.20;;;;;;217199;1282;22553;-64
2023/10/12 00:29:39;;;;;;;;;;;20.10;58.60;;;;;;217481;1283;23063;-63
2023/10/12 00:34:46;;;;;;;;;;;20.10;58.60;;;;;;217143;1292;22652;-63
2023/10/12 00:44:54;;;;;;;;;;;20.10;58.30;;;;;;217476;1298;22643;-64
2023/10/12 00:49:58;;;;;;;;;;;20.10;58.30;;;;;;217351;1298;22577;-64
2023/10/12 00:55:21;;;;;;;;;;;20.10;58.40;;;;;;217026;1298;22541;-63
2023/10/12 01:00:25;;;;;;;;;;;20.10;58.40;;;;;;217318;1298;23193;-65
2023/10/12 01:05:34;;;;;;;;;;;20.20;58.50;;;;;;217542;1291;22671;-64
2023/10/12 01:10:40;;;;;;;;;;;20.10;58.40;;;;;;217220;1292;22740;-64
2023/10/12 01:15:46;;;;;;;;;;;20.10;58.40;;;;;;217459;1298;22517;-65
2023/10/12 01:20:49;;;;;;;;;;;20.10;58.30;;;;;;217364;1298;24259;-62
2023/10/12 01:25:52;;;;;;;;;;;20.10;58.30;;;;;;217343;1298;22662;-64
2023/10/12 01:30:55;;;;;;;;;;;20.10;58.30;;;;;;217251;1298;22556;-64
2023/10/12 01:35:59;;;;;;;;;;;20.10;58.70;;;;;;217239;1298;22739;-65
2023/10/12 01:41:02;;;;;;;;;;;20.10;58.30;;;;;;217333;1296;22551;-64
2023/10/12 01:46:08;;;;;;;;;;;20.10;58.70;;;;;;217475;1298;22668;-64
2023/10/12 01:51:17;;;;;;;;;;;20.10;58.30;;;;;;217620;1298;23989;-65
2023/10/12 01:56:19;;;;;;;;;;;20.10;58.30;;;;;;217240;1298;22588;-65
2023/10/12 02:01:24;;;;;;;;;;;20.10;58.40;;;;;;217388;1282;22540;-65
2023/10/12 02:06:30;;;;;;;;;;;20.10;58.40;;;;;;217469;1292;24200;-65
2023/10/12 02:11:45;;;;;;;;;;;20.10;58.40;;;;;;217723;1298;22563;-64
2023/10/12 02:16:55;;;;;;;;;;;20.10;58.40;;;;;;217243;1298;26676;-65
2023/10/12 02:22:00;;;;;;;;;;;20.10;58.50;;;;;;217320;1298;24256;-63
2023/10/12 02:27:04;;;;;;;;;;;20.10;58.50;;;;;;217442;1298;22679;-65
2023/10/12 02:32:22;;;;;;;;;;;20.10;58.80;;;;;;217329;1298;24248;-65
2023/10/12 02:37:27;;;;;;;;;;;20.10;58.50;;;;;;217592;1294;22582;-64
2023/10/12 02:42:41;;;;;;;;;;;20.10;58.40;;;;;;217420;1298;22560;-64
2023/10/12 02:47:46;;;;;;;;;;;20.10;58.40;;;;;;217316;1292;23956;-64
2023/10/12 02:52:51;;;;;;;;;;;20.10;58.40;;;;;;217533;1298;22553;-63
2023/10/12 02:58:17;;;;;;;;;;;20.10;58.50;;;;;;217454;1285;22534;-63
2023/10/12 03:08:30;;;;;;;;;;;20.10;58.50;;;;;;217012;1294;318334;-64
2023/10/12 03:13:37;;;;;;;;;;;20.10;58.50;;;;;;217149;1295;24534;-65
2023/10/12 03:18:42;;;;;;;;;;;20.10;58.50;;;;;;217446;1298;23177;-65
2023/10/12 03:23:48;;;;;;;;;;;20.10;58.50;;;;;;217502;1295;25247;-65
2023/10/12 03:28:52;;;;;;;;;;;20.10;58.80;;;;;;217332;1285;22679;-64
2023/10/12 03:33:55;;;;;;;;;;;20.10;58.50;;;;;;217440;1298;25319;-65
2023/10/12 03:44:49;;;;;;;;;;;20.00;58.50;;;;;;217103;1278;24235;-64
2023/10/12 03:55:09;;;;;;;;;;;20.10;58.50;;;;;;217492;1291;22626;-63
2023/10/12 04:05:17;;;;;;;;;;;20.00;58.50;;;;;;217425;1283;24394;-63
2023/10/12 04:21:10;;;;;;;;;;;20.00;58.50;;;;;;217390;1297;22590;-65
2023/10/12 04:31:21;;;;;;;;;;;20.00;58.80;;;;;;217357;1294;22658;-64
2023/10/12 04:36:33;;;;;;;;;;;20.00;58.40;;;;;;217580;1298;22562;-64
2023/10/12 04:46:48;;;;;;;;;;;20.00;58.50;;;;;;217417;1285;22631;-64
2023/10/12 04:52:04;;;;;;;;;;;20.00;58.50;;;;;;217245;1298;22661;-64
2023/10/12 05:12:18;;;;;;;;;;;20.00;58.50;;;;;;217329;1294;22632;-64
2023/10/12 05:17:24;;;;;;;;;;;20.00;58.50;;;;;;217598;1294;22611;-63
2023/10/12 05:22:27;;;;;;;;;;;20.00;58.50;;;;;;217373;1292;23908;-63
2023/10/12 05:27:38;;;;;;;;;;;20.00;58.50;;;;;;217619;1292;22554;-69
2023/10/12 05:32:55;;;;;;;;;;;20.00;58.50;;;;;;217586;1298;24284;-66
2023/10/12 05:37:59;;;;;;;;;;;20.00;58.60;;;;;;217314;1285;25387;-65
2023/10/12 05:43:16;;;;;;;;;;;20.00;58.60;;;;;;217449;1294;22546;-65
2023/10/12 05:48:19;;;;;;;;;;;20.00;58.50;;;;;;217502;1295;24248;-64
2023/10/12 05:53:22;;;;;;;;;;;20.00;58.50;;;;;;217421;1297;25901;-64
2023/10/12 05:58:25;;;;;;;;;;;20.00;58.50;;;;;;217462;1298;24264;-64
2023/10/12 06:03:27;;;;;;;;;;;20.00;58.50;;;;;;217239;1294;22537;-65
2023/10/12 06:08:32;;;;;;;;;;;20.00;58.80;;;;;;217403;1298;23353;-65
2023/10/12 06:13:42;;;;;;;;;;;20.00;58.50;;;;;;217489;1298;23213;-64
2023/10/12 06:18:46;;;;;;;;;;;20.00;58.40;;;;;;217555;1295;25342;-62
2023/10/12 06:23:50;;;;;;;;;;;20.10;58.50;;;;;;217388;1294;22547;-64
2023/10/12 06:28:53;;;;;;;;;;;20.00;58.70;;;;;;217487;1295;22543;-64
2023/10/12 06:34:02;;;;;;;;;;;20.00;58.60;;;;;;217480;1291;22547;-65
2023/10/12 06:49:29;;;;;;;;;;;20.10;58.00;;;;;;217354;1285;22820;-60
2023/10/12 06:54:33;;;;;;;;;;;20.20;58.00;;;;;;217365;1295;22537;-62
2023/10/12 06:59:37;;;;;;;;;;;20.20;58.00;;;;;;217305;1298;22697;-59
2023/10/12 07:04:53;;;;;;;;;;;20.20;57.60;;;;;;217403;1282;22540;-62
2023/10/12 07:15:19;;;;;;;;;;;20.20;57.90;;;;;;217334;1289;24246;-59
2023/10/12 07:20:49;;;;;;;;;;;20.20;58.00;;;;;;217480;1294;22665;-61
2023/10/12 07:25:51;;;;;;;;;;;20.30;57.90;;;;;;217548;1292;22552;-60
2023/10/12 07:31:55;;;;;;;;;;;20.30;57.80;;;;;;217317;1298;24854;-61
2023/10/12 07:41:54;;;;;;;;;;;20.30;57.90;;;;;;217375;1284;22574;-60
2023/10/12 07:46:56;;;;;;;;;;;20.30;57.80;;;;;;217324;1298;22602;-61
2023/10/12 07:57:29;;;;;;;;;;;20.30;57.90;;;;;;217303;1288;23942;-63
2023/10/12 08:02:51;;;;;;;;;;;20.30;57.80;;;;;;217703;1298;22762;-64
2023/10/12 08:13:04;;;;;;;;;;;20.30;57.80;;;;;;217358;1283;24254;-64
2023/10/12 08:18:50;;;;;;;;;;;20.30;57.90;;;;;;217460;1297;22761;-63
2023/10/12 08:23:30;;;;;;;;;;;20.30;58.00;;;;;;217606;1294;22844;-63
2023/10/12 08:28:37;;;;;;;;;;;20.30;57.90;;;;;;217309;1284;22544;-65
2023/10/12 08:33:49;;;;;;;;;;;20.30;57.90;;;;;;217504;1298;22534;-62
2023/10/12 08:38:55;;;;;;;;;;;20.30;57.90;;;;;;217469;1294;23971;-67
2023/10/12 08:44:04;;;;;;;;;;;20.30;57.90;;;;;;217433;1294;22711;-63
2023/10/12 08:54:44;;;;;;;;;;;20.30;58.30;;;;;;217057;1285;23519;-64
2023/10/12 08:59:57;;;;;;;;;;;20.30;57.90;;;;;;217456;1298;24282;-65
2023/10/12 09:05:00;;;;;;;;;;;20.30;57.90;;;;;;217567;1292;24035;-64
2023/10/12 09:10:22;;;;;;;;;;;20.30;58.00;;;;;;217401;1298;24690;-61
2023/10/12 09:15:31;;;;;;;;;;;20.30;58.00;;;;;;217320;1298;25606;-61
2023/10/12 09:20:40;;;;;;;;;;;20.30;57.90;;;;;;217594;1282;22561;-62
2023/10/12 09:31:09;;;;;;;;;;;20.30;58.80;;;;;;217200;1298;24792;-61
2023/10/12 09:36:12;;;;;;;;;;;20.30;58.10;;;;;;217381;1298;22659;-62
2023/10/12 09:41:16;;;;;;;;;;;20.30;58.10;;;;;;217510;1285;22541;-61
2023/10/12 09:46:25;;;;;;;;;;;20.30;58.10;;;;;;217309;1298;22538;-64
2023/10/12 09:51:33;;;;;;;;;;;20.30;58.10;;;;;;217706;1292;22543;-61
2023/10/12 09:56:46;;;;;;;;;;;20.30;58.20;;;;;;217362;1298;23824;-62
2023/10/12 10:01:49;;;;;;;;;;;20.30;58.70;;;;;;217703;1285;23184;-63
2023/10/12 10:07:17;;;;;;;;;;;20.30;58.20;;;;;;217439;1291;25262;-59
2023/10/12 10:12:22;;;;;;;;;;;20.30;58.50;;;;;;217361;1298;22551;-62
2023/10/12 10:17:35;;;;;;;;;;;20.30;58.40;;;;;;217464;1288;22606;-62
2023/10/12 10:22:39;;;;;;;;;;;20.30;58.80;;;;;;217381;1292;22835;-61
2023/10/12 10:27:42;;;;;;;;;;;20.30;58.60;;;;;;217599;1298;22530;-65
2023/10/12 10:33:06;;;;;;;;;;;20.30;58.60;;;;;;217433;1298;22543;-65
2023/10/12 10:38:11;;;;;;;;;;;20.40;58.80;;;;;;217308;1294;22609;-65
2023/10/12 10:43:17;;;;;;;;;;;20.40;58.80;;;;;;217304;1294;23223;-64
2023/10/12 10:48:20;;;;;;;;;;;20.40;58.80;;;;;;217386;1294;22532;-65
2023/10/12 10:53:42;;;;;;;;;;;20.30;59.10;;;;;;217475;1294;22608;-63
2023/10/12 10:58:46;;;;;;;;;;;20.40;58.90;;;;;;217382;1285;22527;-63
2023/10/12 11:03:48;;;;;;;;;;;20.40;58.90;;;;;;217648;1285;22546;-64
2023/10/12 11:14:17;;;;;;;;;;;20.30;58.90;;;;;;217410;1298;25502;-64
2023/10/12 11:19:23;;;;;;;;;;;20.30;58.90;;;;;;217374;1297;22533;-64
2023/10/12 11:24:27;;;;;;;;;;;20.30;59.20;;;;;;217556;1294;24144;-64
2023/10/12 11:29:45;;;;;;;;;;;20.30;59.70;;;;;;217453;1291;22542;-65
2023/10/12 11:34:52;;;;;;;;;;;20.30;59.00;;;;;;217740;1291;22546;-63
2023/10/12 11:39:57;;;;;;;;;;;20.30;59.10;;;;;;217350;1297;25421;-59
2023/10/12 11:45:06;;;;;;;;;;;20.30;59.10;;;;;;217341;1285;24456;-63
2023/10/12 11:50:13;;;;;;;;;;;20.30;59.10;;;;;;217579;1298;22545;-62
2023/10/12 11:55:24;;;;;;;;;;;20.30;59.50;;;;;;217407;1298;22565;-62
2023/10/12 12:00:36;;;;;;;;;;;20.30;59.10;;;;;;217570;1294;22579;-62
2023/10/12 12:05:39;;;;;;;;;;;20.40;59.40;;;;;;217299;1294;22591;-62
2023/10/12 12:10:53;;;;;;;;;;;20.40;59.20;;;;;;217408;1284;22536;-60
2023/10/12 12:15:56;;;;;;;;;;;20.30;59.50;;;;;;217208;1287;22531;-60
2023/10/12 12:21:15;;;;;;;;;;;20.30;59.20;;;;;;217529;1298;22713;-61
2023/10/12 12:26:18;;;;;;;;;;;20.40;59.30;;;;;;217361;1298;24360;-61
2023/10/12 12:31:24;;;;;;;;;;;20.40;59.20;;;;;;217259;1295;22603;-62
2023/10/12 12:36:29;;;;;;;;;;;20.40;59.20;;;;;;217229;1298;22635;-61
2023/10/12 12:41:34;;;;;;;;;;;20.40;59.20;;;;;;217291;1299;22521;-61
2023/10/12 12:46:37;;;;;;;;;;;20.40;59.20;;;;;;217134;1296;22669;-63
2023/10/12 12:51:40;;;;;;;;;;;20.30;59.30;;;;;;217276;1291;22658;-64
2023/10/12 12:56:43;;;;;;;;;;;20.30;59.30;;;;;;217353;1292;22567;-63
2023/10/12 13:01:46;;;;;;;;;;;20.40;59.30;;;;;;217286;1285;22571;-62
2023/10/12 13:06:51;;;;;;;;;;;20.40;59.70;;;;;;217267;1298;22572;-64
2023/10/12 13:12:07;;;;;;;;;;;20.40;59.30;;;;;;217450;1298;22615;-65
2023/10/12 13:17:12;;;;;;;;;;;20.40;59.20;;;;;;217551;1298;22584;-63
2023/10/12 13:22:14;;;;;;;;;;;20.40;59.20;;;;;;217514;1298;22535;-65
2023/10/12 13:27:21;;;;;;;;;;;20.40;59.30;;;;;;217431;1298;25052;-63
2023/10/12 13:32:26;;;;;;;;;;;20.40;59.40;;;;;;217482;1298;23079;-63
2023/10/12 13:37:30;;;;;;;;;;;20.40;59.40;;;;;;217521;1294;25296;-65
2023/10/12 13:42:35;;;;;;;;;;;20.40;59.50;;;;;;217295;1294;22554;-63
2023/10/12 13:47:37;;;;;;;;;;;20.30;59.70;;;;;;217222;1298;23905;-64
2023/10/12 13:52:41;;;;;;;;;;;20.50;59.50;;;;;;217565;1295;23577;-63
2023/10/12 13:57:50;;;;;;;;;;;20.40;59.70;;;;;;217495;1298;24264;-61
2023/10/12 14:02:57;;;;;;;;;;;20.30;59.80;;;;;;217358;1291;22580;-62
2023/10/12 14:08:00;;;;;;;;;;;20.40;59.90;;;;;;217219;1294;22771;-62
2023/10/12 14:13:04;;;;;;;;;;;20.30;60.00;;;;;;217559;1285;22666;-60
2023/10/12 14:18:11;;;;;;;;;;;20.40;60.40;;;;;;217341;1298;22539;-61
2023/10/12 14:23:14;;;;;;;;;;;20.40;60.50;;;;;;217436;1295;22549;-61
2023/10/12 14:28:18;;;;;;;;;;;20.30;60.20;;;;;;217246;1294;23571;-62
2023/10/12 14:33:20;;;;;;;;;;;20.30;60.00;;;;;;217168;1285;24426;-61
2023/10/12 14:38:24;;;;;;;;;;;20.30;60.10;;;;;;217295;1298;22567;-61
2023/10/12 14:43:30;;;;;;;;;;;20.30;60.10;;;;;;217279;1292;24793;-61
2023/10/12 14:48:33;;;;;;;;;;;20.30;60.10;;;;;;217399;1298;22543;-61
2023/10/12 14:53:35;;;;;;;;;;;20.30;60.20;;;;;;217702;1291;22527;-62
2023/10/12 14:58:38;;;;;;;;;;;20.30;60.30;;;;;;217355;1285;22604;-61
2023/10/12 15:03:45;;;;;;;;;;;20.30;60.20;;;;;;217424;1298;24301;-62
2023/10/12 15:08:48;;;;;;;;;;;20.30;60.50;;;;;;217167;1298;329323;-65
2023/10/12 15:13:51;;;;;;;;;;;20.30;60.50;;;;;;217170;1297;24311;-65
2023/10/12 15:18:53;;;;;;;;;;;20.30;60.50;;;;;;217398;1294;24392;-64
2023/10/12 15:23:57;;;;;;;;;;;20.30;60.50;;;;;;217205;1298;22659;-65
2023/10/12 15:29:08;;;;;;;;;;;20.30;60.40;;;;;;217373;1292;24254;-63
2023/10/12 15:34:13;;;;;;;;;;;20.30;60.50;;;;;;217146;1285;24248;-65
2023/10/12 15:39:16;;;;;;;;;;;20.30;60.50;;;;;;217145;1294;24285;-64
2023/10/12 15:44:18;;;;;;;;;;;20.20;60.50;;;;;;217333;1298;22621;-65
2023/10/12 15:49:22;;;;;;;;;;;20.20;60.50;;;;;;217640;1298;26556;-65
2023/10/12 15:54:26;;;;;;;;;;;20.20;60.40;;;;;;217241;1285;22555;-65
2023/10/12 15:59:33;;;;;;;;;;;20.30;60.50;;;;;;217389;1299;22529;-65
2023/10/12 16:04:45;;;;;;;;;;;20.30;60.80;;;;;;217395;1298;24253;-65
2023/10/12 16:09:49;;;;;;;;;;;20.30;60.40;;;;;;217373;1295;22754;-64
2023/10/12 16:14:54;;;;;;;;;;;20.30;60.40;;;;;;217256;1298;23649;-65
2023/10/12 16:19:57;;;;;;;;;;;20.20;60.30;;;;;;217476;1291;25262;-65
2023/10/12 16:25:07;;;;;;;;;;;20.20;60.50;;;;;;217530;1298;24292;-64
2023/10/12 16:30:17;;;;;;;;;;;20.30;60.40;;;;;;217466;1286;22527;-65
2023/10/12 16:35:23;;;;;;;;;;;20.30;60.40;;;;;;217308;1298;22684;-64
2023/10/12 16:40:29;;;;;;;;;;;20.30;60.30;;;;;;217424;1292;22549;-64
2023/10/12 16:45:35;;;;;;;;;;;20.30;60.30;;;;;;217489;1294;23001;-65
2023/10/12 16:50:41;;;;;;;;;;;20.30;60.70;;;;;;217356;1294;22531;-64
2023/10/12 16:55:45;;;;;;;;;;;20.30;60.30;;;;;;217351;1298;25525;-65
2023/10/12 17:00:53;;;;;;;;;;;20.20;60.30;;;;;;217351;1295;22678;-65
2023/10/12 17:05:57;;;;;;;;;;;20.30;60.40;;;;;;217326;1295;22528;-65
2023/10/12 17:11:00;;;;;;;;;;;20.20;60.40;;;;;;217414;1293;25357;-64
2023/10/12 17:16:03;;;;;;;;;;;20.20;60.30;;;;;;217377;1298;23919;-65
2023/10/12 17:21:06;;;;;;;;;;;20.20;60.50;;;;;;217556;1295;22526;-67
2023/10/12 17:26:12;;;;;;;;;;;20.20;60.40;;;;;;217197;1294;22531;-61
2023/10/12 17:31:15;;;;;;;;;;;20.20;60.50;;;;;;217203;1291;23074;-62
2023/10/12 17:36:20;;;;;;;;;;;20.20;60.40;;;;;;217493;1298;23956;-61
2023/10/12 17:41:24;;;;;;;;;;;20.20;60.40;;;;;;217268;1294;23937;-60
2023/10/12 17:46:34;;;;;;;;;;;20.20;60.40;;;;;;217428;1295;24269;-61
2023/10/12 17:51:41;;;;;;;;;;;20.20;60.40;;;;;;217457;1292;22524;-63
2023/10/12 17:56:45;;;;;;;;;;;20.20;60.80;;;;;;217495;1294;22556;-62
2023/10/12 18:01:49;;;;;;;;;;;20.20;60.40;;;;;;217489;1298;24235;-60
2023/10/12 18:06:55;;;;;;;;;;;20.20;60.40;;;;;;217453;1295;24183;-63
2023/10/12 18:11:59;;;;;;;;;;;20.20;60.50;;;;;;217465;1291;24761;-59
2023/10/12 18:17:03;;;;;;;;;;;20.20;60.50;;;;;;217567;1291;22538;-61
2023/10/12 18:22:07;;;;;;;;;;;20.20;60.40;;;;;;217478;1295;24417;-64
2023/10/12 18:27:11;;;;;;;;;;;20.20;60.50;;;;;;217509;1290;25338;-60
2023/10/12 18:32:21;;;;;;;;;;;20.20;60.40;;;;;;217537;1292;23937;-62
2023/10/12 18:37:28;;;;;;;;;;;20.20;60.40;;;;;;217393;1294;22530;-60
2023/10/12 18:42:35;;;;;;;;;;;20.20;60.60;;;;;;217315;1285;22537;-60
2023/10/12 18:47:39;;;;;;;;;;;20.20;60.40;;;;;;217363;1291;25249;-61
2023/10/12 18:52:44;;;;;;;;;;;20.20;60.40;;;;;;217478;1297;22645;-61
2023/10/12 18:57:56;;;;;;;;;;;20.20;60.80;;;;;;217461;1294;22664;-60
2023/10/12 19:03:02;;;;;;;;;;;20.20;60.30;;;;;;217700;1292;25221;-61
2023/10/12 19:08:07;;;;;;;;;;;20.20;60.80;;;;;;217569;1298;25579;-62
2023/10/12 19:13:11;;;;;;;;;;;20.20;60.50;;;;;;217352;1292;25305;-62
2023/10/12 19:18:29;;;;;;;;;;;20.20;60.60;;;;;;217479;1291;25411;-62
2023/10/12 19:23:35;;;;;;;;;;;20.20;60.50;;;;;;217559;1295;25316;-60
2023/10/12 19:28:43;;;;;;;;;;;20.20;60.60;;;;;;217562;1296;25379;-61
2023/10/12 19:33:51;;;;;;;;;;;20.20;60.40;;;;;;217445;1298;23449;-62
2023/10/12 19:38:54;;;;;;;;;;;20.20;60.70;;;;;;217491;1298;22718;-61
2023/10/12 19:43:59;;;;;;;;;;;20.20;60.40;;;;;;217593;1298;22704;-61
2023/10/12 19:49:08;;;;;;;;;;;20.20;60.50;;;;;;217329;1298;25377;-62
2023/10/12 19:54:14;;;;;;;;;;;20.20;60.50;;;;;;217420;1287;22663;-62
2023/10/12 19:59:19;;;;;;;;;;;20.20;60.50;;;;;;217433;1298;24254;-63
2023/10/12 20:04:24;;;;;;;;;;;20.20;60.50;;;;;;217624;1298;22557;-61
2023/10/12 20:09:28;;;;;;;;;;;20.20;60.80;;;;;;217549;1295;24981;-60
2023/10/12 20:14:35;;;;;;;;;;;20.20;60.50;;;;;;217664;1298;24081;-61
2023/10/12 20:19:38;;;;;;;;;;;20.20;60.50;;;;;;217394;1295;22533;-61
2023/10/12 20:24:42;;;;;;;;;;;20.20;60.80;;;;;;217351;1292;24073;-62
2023/10/12 20:29:45;;;;;;;;;;;20.20;60.40;;;;;;217354;1290;25485;-60
2023/10/12 20:34:48;;;;;;;;;;;20.10;60.40;;;;;;217344;1297;22596;-61
2023/10/12 20:39:51;;;;;;;;;;;20.20;60.40;;;;;;217491;1298;22523;-60
2023/10/12 20:44:53;;;;;;;;;;;20.20;60.50;;;;;;217501;1297;22638;-61
2023/10/12 20:49:57;;;;;;;;;;;20.10;60.40;;;;;;217422;1295;22524;-60
2023/10/12 20:54:59;;;;;;;;;;;20.10;60.90;;;;;;217416;1292;22589;-64
2023/10/12 21:00:05;;;;;;;;;;;20.10;60.40;;;;;;217468;1298;23591;-64
2023/10/12 21:05:08;;;;;;;;;;;20.20;60.40;;;;;;217438;1297;22547;-64
2023/10/12 21:10:14;;;;;;;;;;;20.10;60.50;;;;;;217559;1289;22527;-64
2023/10/12 21:15:20;;;;;;;;;;;20.10;60.50;;;;;;217396;1285;22537;-64
2023/10/12 21:20:33;;;;;;;;;;;20.10;60.80;;;;;;217549;1298;22630;-64
2023/10/12 21:25:35;;;;;;;;;;;20.10;60.40;;;;;;217425;1284;23061;-65
2023/10/12 21:30:39;;;;;;;;;;;20.10;60.30;;;;;;217453;1298;23179;-63
2023/10/12 21:35:45;;;;;;;;;;;20.10;60.30;;;;;;217562;1291;22549;-66
2023/10/12 21:40:50;;;;;;;;;;;20.10;60.30;;;;;;217318;1298;22572;-63
2023/10/12 21:45:57;;;;;;;;;;;20.10;60.40;;;;;;217641;1298;22553;-64
2023/10/12 21:51:03;;;;;;;;;;;20.10;60.40;;;;;;217683;1298;26681;-65
2023/10/12 21:56:06;;;;;;;;;;;20.10;60.50;;;;;;217559;1295;22541;-63
2023/10/12 22:01:09;;;;;;;;;;;20.10;60.50;;;;;;217272;1292;25468;-65
2023/10/12 22:06:15;;;;;;;;;;;20.10;60.50;;;;;;217278;1298;23959;-61
2023/10/12 22:11:20;;;;;;;;;;;20.10;60.40;;;;;;217522;1298;22534;-60
2023/10/12 22:16:33;;;;;;;;;;;20.10;60.50;;;;;;217199;1298;22531;-61
2023/10/12 22:21:45;;;;;;;;;;;20.10;60.40;;;;;;217554;1291;22586;-62
2023/10/12 22:26:50;;;;;;;;;;;20.10;60.80;;;;;;217544;1297;23902;-62
2023/10/12 22:31:55;;;;;;;;;;;20.10;60.40;;;;;;217365;1292;22536;-61
2023/10/12 22:36:58;;;;;;;;;;;20.10;60.70;;;;;;217375;1298;22536;-60
2023/10/12 22:42:02;;;;;;;;;;;20.10;60.70;;;;;;217395;1298;22533;-60
2023/10/12 22:47:07;;;;;;;;;;;20.10;60.00;;;;;;217438;1285;26673;-61
2023/10/12 22:52:10;;;;;;;;;;;20.10;60.40;;;;;;217508;1294;22532;-59
2023/10/12 22:57:13;;;;;;;;;;;20.10;60.40;;;;;;217399;1298;22523;-61
2023/10/12 23:02:16;;;;;;;;;;;20.10;60.40;;;;;;217504;1286;22678;-61
2023/10/12 23:07:19;;;;;;;;;;;20.10;60.40;;;;;;217726;1294;23360;-61
2023/10/12 23:12:21;;;;;;;;;;;20.10;60.40;;;;;;217626;1297;22530;-61
2023/10/12 23:17:27;;;;;;;;;;;20.10;60.40;;;;;;217395;1297;22550;-59
2023/10/12 23:22:32;;;;;;;;;;;20.10;60.40;;;;;;217580;1296;22556;-62
2023/10/12 23:27:36;;;;;;;;;;;20.00;60.40;;;;;;217537;1293;22524;-63
2023/10/12 23:32:40;;;;;;;;;;;20.00;60.40;;;;;;217615;1286;25428;-61
2023/10/12 23:37:58;;;;;;;;;;;20.00;60.50;;;;;;217485;1291;22537;-61
2023/10/12 23:43:03;;;;;;;;;;;20.00;60.80;;;;;;217396;1294;22591;-60
2023/10/12 23:48:09;;;;;;;;;;;20.00;60.40;;;;;;217424;1289;22527;-60
2023/10/12 23:53:17;;;;;;;;;;;20.00;60.40;;;;;;217480;1295;22531;-61
2023/10/12 23:58:21;;;;;;;;;;;20.00;60.30;;;;;;217708;1298;22566;-63
